Happy Valley, Nevada
Current Conditions -  °F | °C
As of 3:55 PM on Saturday 25 Oct 2014 (Local Time) from KRNO Reporting Station
Scattered Clouds Scattered Clouds  
Wind Chill: 58°   Ceiling: Unl
Heat Index: 58°   Visibility: 10mi
Dew Point: 27°   Wind: 14mph
Humidity: 31%   Direction: 90°E
Pressure: 30.01"   Gusts: 20mph
Location:  39.5386°N, 119.749°W
Report Text: KRNO 252255Z 09012G17KT 10SM FEW055 SCT065 SCT090 14/M03 A3001 RMK AO2 PK WND 26027/2156 RAE00 SLP127 MTN TOPS OBSCD SW SH VC SW P0000 T01441028
Loading
Personal Weather Stations






























Interactive Weather Map New forecast layout! Learn more

10-Day Weather Forecast

Advertisements
Track Severe Weather on mobile